Time;durP1;ratioP1;P1;durP2;ratioP2;P2;SDS_P1;SDS_P2;PMS_P1;PMS_P2;Temp;Humidity;BMP_temperature;BMP_pressure;BME280_temperature;BME280_humidity;BME280_pressure;Samples;Min_cycle;Max_cycle;Signal;HPM_P1;HPM_P2
2024/01/10 00:01:15;;;;;;;;;;;;;;;-7.38;69.77;101592.56;4931345;28;19952;-83
2024/01/10 00:03:41;;;;;;;;;;;;;;;-7.42;69.86;101588.88;4940029;28;19926;-81
2024/01/10 00:06:09;;;;;;;;;;;;;;;-7.45;70.07;101588.66;4948633;28;19927;-82
2024/01/10 00:08:36;;;;;;;;;;;;;;;-7.43;69.29;101587.13;4934393;28;19951;-82
2024/01/10 00:11:03;;;;;;;;;;;;;;;-7.42;69.27;101595.66;4932755;28;19927;-81
2024/01/10 00:13:31;;;;;;;;;;;;;;;-7.38;68.87;101593.44;4946764;28;19931;-81
2024/01/10 00:15:58;;;;;;;;;;;;;;;-7.39;68.92;101588.22;4940712;28;19941;-81
2024/01/10 00:18:25;;;;;;;;;;;;;;;-7.36;69.06;101584.28;4940035;28;19933;-81
2024/01/10 00:20:54;;;;;;;;;;;;;;;-7.41;69.40;101584.69;4937614;28;19942;-82
2024/01/10 00:23:21;;;;;;;;;;;;;;;-7.47;69.24;101569.81;4930034;29;19935;-81
2024/01/10 00:25:48;;;;;;;;;;;;;;;-7.48;69.11;101572.25;4932152;28;19998;-83
2024/01/10 00:28:18;;;;;;;;;;;;;;;-7.43;69.70;101574.38;4937240;28;19969;-83
2024/01/10 00:30:45;;;;;;;;;;;;;;;-7.38;70.69;101575.59;4939769;28;19934;-82
2024/01/10 00:33:11;;;;;;;;;;;;;;;-7.38;70.10;101565.41;4943034;28;19926;-81
2024/01/10 00:35:38;;;;;;;;;;;;;;;-7.45;69.11;101554.63;4949268;28;19926;-81
2024/01/10 00:38:05;;;;;;;;;;;;;;;-7.45;69.36;101565.69;4931043;28;19926;-82
2024/01/10 00:40:32;;;;;;;;;;;;;;;-7.48;69.78;101570.56;4933852;28;20314;-81
2024/01/10 00:42:58;;;;;;;;;;;;;;;-7.46;70.10;101561.38;4932327;28;19977;-81
2024/01/10 00:45:25;;;;;;;;;;;;;;;-7.50;69.91;101564.50;4937344;28;19926;-83
2024/01/10 00:47:51;;;;;;;;;;;;;;;-7.46;69.97;101560.50;4937798;28;19934;-81
2024/01/10 00:50:18;;;;;;;;;;;;;;;-7.46;70.01;101558.81;4934235;28;19997;-82
2024/01/10 00:52:45;;;;;;;;;;;;;;;-7.48;70.15;101556.94;4934874;28;19935;-83
2024/01/10 00:55:12;;;;;;;;;;;;;;;-7.51;70.06;101565.25;4937053;28;19935;-82
2024/01/10 00:57:38;;;;;;;;;;;;;;;-7.50;70.02;101569.59;4935385;28;19927;-82
2024/01/10 01:00:06;;;;;;;;;;;;;;;-7.53;69.59;101571.88;4937032;28;19941;-85
2024/01/10 01:02:32;;;;;;;;;;;;;;;-7.46;70.42;101571.56;4937612;28;19930;-82
2024/01/10 01:05:00;;;;;;;;;;;;;;;-7.39;70.40;101560.19;4938533;28;19958;-83
2024/01/10 01:07:27;;;;;;;;;;;;;;;-7.47;69.93;101563.81;4938213;28;19927;-82
2024/01/10 01:09:53;;;;;;;;;;;;;;;-7.43;69.80;101563.25;4934920;28;19927;-84
2024/01/10 01:12:20;;;;;;;;;;;;;;;-7.38;70.04;101562.84;4937988;28;19934;-82
2024/01/10 01:14:46;;;;;;;;;;;;;;;-7.41;69.41;101559.19;4937806;28;19942;-83
2024/01/10 01:17:13;;;;;;;;;;;;;;;-7.41;69.44;101565.16;4933945;28;19926;-81
2024/01/10 01:19:40;;;;;;;;;;;;;;;-7.34;68.88;101562.31;4938288;28;19962;-82
2024/01/10 01:22:06;;;;;;;;;;;;;;;-7.34;68.69;101566.53;4936667;28;20026;-81
2024/01/10 01:24:33;;;;;;;;;;;;;;;-7.29;69.18;101565.19;4935928;28;19934;-81
2024/01/10 01:27:00;;;;;;;;;;;;;;;-7.29;68.98;101567.75;4938482;28;19927;-83
2024/01/10 01:29:28;;;;;;;;;;;;;;;-7.23;68.26;101574.97;4933177;28;19931;-83
2024/01/10 01:31:55;;;;;;;;;;;;;;;-7.24;68.74;101583.38;4931912;28;19934;-83
2024/01/10 01:34:22;;;;;;;;;;;;;;;-7.24;68.13;101575.72;4934624;28;19943;-82
2024/01/10 01:36:51;;;;;;;;;;;;;;;-7.22;68.01;101577.63;4936132;28;19927;-82
2024/01/10 01:39:18;;;;;;;;;;;;;;;-7.17;68.55;101580.53;4936500;28;19935;-83
2024/01/10 01:41:44;;;;;;;;;;;;;;;-7.12;68.54;101584.31;4937853;28;19930;-83
2024/01/10 01:44:11;;;;;;;;;;;;;;;-7.12;68.12;101574.13;4938741;28;19938;-81
2024/01/10 01:46:40;;;;;;;;;;;;;;;-7.06;69.08;101573.69;4935283;28;20416;-82
2024/01/10 01:49:06;;;;;;;;;;;;;;;-7.09;67.80;101578.56;4937263;28;19935;-81
2024/01/10 01:51:33;;;;;;;;;;;;;;;-7.08;68.03;101570.09;4937851;28;19931;-81
2024/01/10 01:54:00;;;;;;;;;;;;;;;-7.09;68.13;101564.13;4921439;28;19954;-81
2024/01/10 01:56:26;;;;;;;;;;;;;;;-7.06;67.42;101564.34;4936500;28;19930;-82
2024/01/10 01:58:54;;;;;;;;;;;;;;;-7.05;67.85;101566.13;4933362;28;19927;-81
2024/01/10 02:01:21;;;;;;;;;;;;;;;-7.06;67.41;101561.78;4929281;28;19962;-82
2024/01/10 02:03:48;;;;;;;;;;;;;;;-6.99;67.91;101563.16;4931877;28;19931;-81
2024/01/10 02:06:14;;;;;;;;;;;;;;;-7.03;67.42;101563.69;4936755;28;19927;-82
2024/01/10 02:08:41;;;;;;;;;;;;;;;-6.98;67.54;101557.25;4937118;28;19935;-81
2024/01/10 02:11:08;;;;;;;;;;;;;;;-6.99;67.51;101564.03;4935090;28;19933;-82
2024/01/10 02:13:35;;;;;;;;;;;;;;;-6.97;67.19;101555.59;4932702;28;19933;-81
2024/01/10 02:16:03;;;;;;;;;;;;;;;-6.89;68.12;101552.84;4931753;28;19927;-82
2024/01/10 02:18:29;;;;;;;;;;;;;;;-6.90;67.98;101558.72;4936031;28;19982;-82
2024/01/10 02:20:57;;;;;;;;;;;;;;;-6.89;67.51;101568.16;4935295;28;19934;-83
2024/01/10 02:23:24;;;;;;;;;;;;;;;-6.91;67.48;101563.69;4940229;28;20029;-82
2024/01/10 02:25:51;;;;;;;;;;;;;;;-6.93;67.62;101555.94;4935655;28;20001;-82
2024/01/10 02:28:17;;;;;;;;;;;;;;;-6.92;67.81;101546.59;4933999;29;19926;-81
2024/01/10 02:30:44;;;;;;;;;;;;;;;-6.91;67.04;101544.16;4938281;28;19926;-81
2024/01/10 02:33:11;;;;;;;;;;;;;;;-6.90;67.51;101543.41;4932570;28;19946;-82
2024/01/10 02:35:37;;;;;;;;;;;;;;;-6.91;67.52;101536.50;4933386;28;19927;-81
2024/01/10 02:38:04;;;;;;;;;;;;;;;-6.89;67.13;101531.53;4941579;28;19927;-81
2024/01/10 02:40:31;;;;;;;;;;;;;;;-6.91;67.30;101535.63;4938693;28;20021;-83
2024/01/10 02:42:57;;;;;;;;;;;;;;;-6.90;67.03;101528.06;4935195;28;20024;-82
2024/01/10 02:45:24;;;;;;;;;;;;;;;-6.90;66.69;101535.72;4937644;28;19930;-83
2024/01/10 02:47:51;;;;;;;;;;;;;;;-6.85;66.66;101530.97;4931242;28;19935;-83
2024/01/10 02:50:17;;;;;;;;;;;;;;;-6.85;66.21;101526.75;4933132;28;19938;-81
2024/01/10 02:52:44;;;;;;;;;;;;;;;-6.83;66.66;101522.63;4932889;28;19930;-81
2024/01/10 02:55:11;;;;;;;;;;;;;;;-6.79;66.20;101515.19;4935593;28;19997;-83
2024/01/10 02:57:37;;;;;;;;;;;;;;;-6.83;66.13;101519.22;4933077;28;19935;-85
2024/01/10 03:00:05;;;;;;;;;;;;;;;-6.75;66.21;101519.75;4936386;28;19937;-81
2024/01/10 03:02:32;;;;;;;;;;;;;;;-6.75;65.57;101512.97;4937260;28;19942;-81
2024/01/10 03:05:00;;;;;;;;;;;;;;;-6.76;65.61;101511.22;4937425;28;19927;-81
2024/01/10 03:07:26;;;;;;;;;;;;;;;-6.73;65.55;101516.53;4936997;28;19927;-81
2024/01/10 03:09:53;;;;;;;;;;;;;;;-6.73;65.73;101519.09;4939858;28;19934;-85
2024/01/10 03:12:20;;;;;;;;;;;;;;;-6.71;66.18;101512.41;4939188;28;20026;-82
2024/01/10 03:14:46;;;;;;;;;;;;;;;-6.71;66.20;101517.53;4936029;28;19927;-82
2024/01/10 03:17:13;;;;;;;;;;;;;;;-6.73;65.43;101508.88;4938636;28;19926;-82
2024/01/10 03:19:43;;;;;;;;;;;;;;;-6.72;66.01;101510.66;4935136;28;19927;-81
2024/01/10 03:22:13;;;;;;;;;;;;;;;-6.73;65.78;101503.78;4933043;28;19931;-82
2024/01/10 03:24:39;;;;;;;;;;;;;;;-6.71;65.72;101501.31;4929809;28;19935;-91
2024/01/10 03:27:06;;;;;;;;;;;;;;;-6.68;66.33;101501.53;4935686;28;19937;-84
2024/01/10 03:29:33;;;;;;;;;;;;;;;-6.71;66.15;101494.53;4922491;28;19934;-81
2024/01/10 03:31:59;;;;;;;;;;;;;;;-6.69;66.33;101499.75;4936239;28;19937;-82
2024/01/10 03:34:26;;;;;;;;;;;;;;;-6.70;66.58;101503.13;4937276;28;19927;-82
2024/01/10 03:36:53;;;;;;;;;;;;;;;-6.71;66.89;101507.31;4934903;28;19927;-84
2024/01/10 03:39:20;;;;;;;;;;;;;;;-6.70;66.66;101505.66;4932132;28;19931;-83
2024/01/10 03:41:47;;;;;;;;;;;;;;;-6.65;66.81;101505.22;4934320;28;19973;-83
2024/01/10 03:44:14;;;;;;;;;;;;;;;-6.69;66.29;101500.66;4932717;28;19931;-83
2024/01/10 03:46:40;;;;;;;;;;;;;;;-6.70;66.41;101506.53;4941107;28;19926;-82
2024/01/10 03:49:07;;;;;;;;;;;;;;;-6.69;66.83;101507.41;4929633;28;20033;-81
2024/01/10 03:51:34;;;;;;;;;;;;;;;-6.65;67.35;101501.75;4935587;28;21238;-82
2024/01/10 03:54:01;;;;;;;;;;;;;;;-6.71;66.20;101506.44;4934259;28;19937;-82
2024/01/10 03:56:27;;;;;;;;;;;;;;;-6.73;66.48;101503.78;4936912;28;19931;-82
2024/01/10 03:58:56;;;;;;;;;;;;;;;-6.75;66.94;101504.44;4937440;28;19931;-83
2024/01/10 04:01:23;;;;;;;;;;;;;;;-6.75;67.27;101501.88;4936936;28;19938;-83
2024/01/10 04:03:50;;;;;;;;;;;;;;;-6.74;67.23;101499.44;4935584;28;19938;-81
2024/01/10 04:06:17;;;;;;;;;;;;;;;-6.70;68.23;101514.19;4935246;28;19927;-82
2024/01/10 04:08:43;;;;;;;;;;;;;;;-6.71;67.46;101507.31;4940009;28;20044;-82
2024/01/10 04:11:10;;;;;;;;;;;;;;;-6.82;67.17;101508.22;4931425;28;19945;-83
2024/01/10 04:13:37;;;;;;;;;;;;;;;-6.78;67.21;101507.66;4932976;28;19927;-81
2024/01/10 04:16:03;;;;;;;;;;;;;;;-6.78;67.23;101510.19;4935280;28;19927;-81
2024/01/10 04:18:30;;;;;;;;;;;;;;;-6.81;67.73;101515.09;4941234;28;19933;-82
2024/01/10 04:20:57;;;;;;;;;;;;;;;-6.80;67.38;101506.66;4935026;28;19934;-82
2024/01/10 04:23:24;;;;;;;;;;;;;;;-6.84;67.87;101513.19;4920303;28;19931;-82
2024/01/10 04:25:50;;;;;;;;;;;;;;;-6.82;68.18;101513.34;4939872;28;19930;-82
2024/01/10 04:28:17;;;;;;;;;;;;;;;-6.84;68.49;101513.19;4939695;28;19974;-82
2024/01/10 04:30:43;;;;;;;;;;;;;;;-6.79;68.30;101507.53;4931756;28;19930;-82
2024/01/10 04:33:10;;;;;;;;;;;;;;;-6.81;67.94;101515.09;4936169;28;19942;-84
2024/01/10 04:35:37;;;;;;;;;;;;;;;-6.80;68.64;101511.78;4934419;28;19941;-82
2024/01/10 04:38:03;;;;;;;;;;;;;;;-6.80;68.98;101511.78;4931444;28;19936;-83
2024/01/10 04:40:30;;;;;;;;;;;;;;;-6.85;68.24;101510.53;4936221;28;19927;-82
2024/01/10 04:42:57;;;;;;;;;;;;;;;-6.82;68.29;101508.22;4932187;28;19926;-82
2024/01/10 04:45:23;;;;;;;;;;;;;;;-6.84;68.32;101502.97;4939506;28;19926;-82
2024/01/10 04:47:50;;;;;;;;;;;;;;;-6.84;68.35;101509.75;4934417;28;19934;-83
2024/01/10 04:50:17;;;;;;;;;;;;;;;-6.82;68.17;101516.75;4936707;28;19926;-82
2024/01/10 04:52:43;;;;;;;;;;;;;;;-6.80;69.09;101519.44;4934320;28;19927;-82
2024/01/10 04:55:10;;;;;;;;;;;;;;;-6.86;68.33;101514.75;4939655;28;19954;-81
2024/01/10 04:57:38;;;;;;;;;;;;;;;-6.88;68.44;101524.00;4935593;28;19933;-82
2024/01/10 05:00:04;;;;;;;;;;;;;;;-6.87;68.39;101519.75;4920443;28;19930;-82
2024/01/10 05:02:31;;;;;;;;;;;;;;;-6.88;68.38;101523.09;4940475;28;19927;-82
2024/01/10 05:04:58;;;;;;;;;;;;;;;-6.88;69.01;101518.88;4937376;28;19926;-82
2024/01/10 05:07:26;;;;;;;;;;;;;;;-6.83;69.54;101519.22;4929260;28;20367;-82
2024/01/10 05:09:53;;;;;;;;;;;;;;;-6.93;69.30;101515.09;4937667;28;19935;-82
2024/01/10 05:12:19;;;;;;;;;;;;;;;-6.93;69.62;101514.22;4934868;28;19987;-82
2024/01/10 05:14:46;;;;;;;;;;;;;;;-6.96;69.37;101514.00;4929039;28;19927;-82
2024/01/10 05:17:12;;;;;;;;;;;;;;;-6.94;68.87;101512.44;4933290;28;19931;-82
2024/01/10 05:19:39;;;;;;;;;;;;;;;-6.86;69.68;101513.88;4935899;28;19927;-84
2024/01/10 05:22:06;;;;;;;;;;;;;;;-6.96;69.61;101511.44;4930916;28;19926;-81
2024/01/10 05:24:33;;;;;;;;;;;;;;;-6.94;69.36;101512.44;4935732;28;19937;-83
2024/01/10 05:26:59;;;;;;;;;;;;;;;-6.99;69.63;101507.88;4934740;28;19937;-80
2024/01/10 05:29:27;;;;;;;;;;;;;;;-6.96;69.72;101507.22;4933182;28;19926;-81
2024/01/10 05:31:54;;;;;;;;;;;;;;;-6.99;69.22;101507.00;4924048;28;20034;-81
2024/01/10 05:34:20;;;;;;;;;;;;;;;-6.96;69.93;101508.91;4930955;28;19927;-82
2024/01/10 05:36:48;;;;;;;;;;;;;;;-6.97;69.88;101512.22;4935287;28;19926;-82
2024/01/10 05:39:15;;;;;;;;;;;;;;;-6.96;70.31;101508.91;4944591;28;19937;-81
2024/01/10 05:41:43;;;;;;;;;;;;;;;-7.00;70.61;101513.75;4936480;28;19937;-81
2024/01/10 05:44:12;;;;;;;;;;;;;;;-6.94;70.61;101515.88;4942235;28;19993;-83
2024/01/10 05:46:39;;;;;;;;;;;;;;;-6.98;70.16;101511.31;4938770;28;19926;-81
2024/01/10 05:49:06;;;;;;;;;;;;;;;-7.03;70.24;101518.63;4940606;28;20457;-81
2024/01/10 05:51:33;;;;;;;;;;;;;;;-6.96;70.34;101508.91;4941707;28;19931;-83
2024/01/10 05:54:00;;;;;;;;;;;;;;;-7.01;70.08;101506.91;4946246;28;20029;-84
2024/01/10 05:56:27;;;;;;;;;;;;;;;-7.02;69.71;101509.34;4939555;28;19950;-81
2024/01/10 05:58:54;;;;;;;;;;;;;;;-7.01;69.95;101511.09;4944696;28;19927;-81
2024/01/10 06:01:21;;;;;;;;;;;;;;;-6.97;70.03;101507.13;4940349;28;19945;-82
2024/01/10 06:03:47;;;;;;;;;;;;;;;-6.96;69.19;101508.91;4948507;28;19926;-82
2024/01/10 06:06:14;;;;;;;;;;;;;;;-6.96;69.65;101503.78;4944523;28;20006;-82
2024/01/10 06:08:41;;;;;;;;;;;;;;;-7.00;69.76;101511.19;4943606;28;19985;-79
2024/01/10 06:11:09;;;;;;;;;;;;;;;-6.98;69.81;101521.50;4934476;28;19927;-79
2024/01/10 06:13:36;;;;;;;;;;;;;;;-6.88;70.51;101517.97;4939714;28;19938;-79
2024/01/10 06:16:19;;;;;;;;;;;;;;;-6.88;70.53;101523.09;4935923;28;19934;-79
2024/01/10 06:18:45;;;;;;;;;;;;;;;-6.91;69.87;101521.19;4936730;28;19927;-79
2024/01/10 06:21:12;;;;;;;;;;;;;;;-6.86;70.69;101521.53;4943348;28;19958;-79
2024/01/10 06:23:39;;;;;;;;;;;;;;;-6.88;70.47;101520.53;4939173;28;19927;-80
2024/01/10 06:26:06;;;;;;;;;;;;;;;-6.91;69.68;101525.41;4943363;28;19926;-81
2024/01/10 06:28:33;;;;;;;;;;;;;;;-6.89;70.16;101526.44;4940886;28;19926;-79
2024/01/10 06:30:59;;;;;;;;;;;;;;;-6.92;70.18;101524.53;4940495;28;19927;-80
2024/01/10 06:33:26;;;;;;;;;;;;;;;-6.90;70.12;101525.53;4932778;28;19935;-80
2024/01/10 06:35:54;;;;;;;;;;;;;;;-6.77;70.53;101522.19;4935133;28;20102;-79
2024/01/10 06:38:22;;;;;;;;;;;;;;;-6.81;70.04;101520.19;4934817;28;19973;-80
2024/01/10 06:40:50;;;;;;;;;;;;;;;-6.87;70.08;101524.88;4935788;28;19930;-79
2024/01/10 06:43:17;;;;;;;;;;;;;;;-6.85;70.15;101530.97;4936746;28;20021;-79
2024/01/10 06:45:44;;;;;;;;;;;;;;;-6.86;69.82;101529.22;4941138;28;19927;-79
2024/01/10 06:48:11;;;;;;;;;;;;;;;-6.86;69.96;101522.41;4936513;28;19942;-80
2024/01/10 06:50:38;;;;;;;;;;;;;;;-6.89;69.65;101522.19;4938410;28;19982;-79
2024/01/10 06:53:05;;;;;;;;;;;;;;;-6.85;70.01;101533.50;4936341;28;20281;-78
2024/01/10 06:55:32;;;;;;;;;;;;;;;-6.80;69.85;101529.63;4917809;28;19933;-79
2024/01/10 06:57:59;;;;;;;;;;;;;;;-6.84;69.99;101527.63;4941894;28;19950;-79
2024/01/10 07:00:26;;;;;;;;;;;;;;;-6.88;69.79;101531.66;4941365;28;19927;-79
2024/01/10 07:02:53;;;;;;;;;;;;;;;-6.85;69.50;101533.50;4939087;28;19927;-80
2024/01/10 07:05:19;;;;;;;;;;;;;;;-6.80;69.69;101531.31;4933727;28;19999;-79
2024/01/10 07:07:46;;;;;;;;;;;;;;;-6.78;69.83;101528.06;4936973;28;19926;-78
2024/01/10 07:10:13;;;;;;;;;;;;;;;-6.75;70.40;101530.84;4932881;28;19938;-80
2024/01/10 07:12:41;;;;;;;;;;;;;;;-6.75;70.35;101541.06;4933805;28;19927;-80
2024/01/10 07:15:08;;;;;;;;;;;;;;;-6.72;70.16;101538.75;4934867;28;19927;-80
2024/01/10 07:17:34;;;;;;;;;;;;;;;-6.79;70.07;101540.72;4937082;28;19954;-79
2024/01/10 07:20:02;;;;;;;;;;;;;;;-6.72;70.36;101537.84;4935364;28;19926;-79
2024/01/10 07:22:29;;;;;;;;;;;;;;;-6.72;70.02;101540.41;4938447;28;20011;-79
2024/01/10 07:24:56;;;;;;;;;;;;;;;-6.73;69.85;101542.06;4937648;28;19978;-79
2024/01/10 07:27:24;;;;;;;;;;;;;;;-6.68;70.48;101538.16;4936376;28;19934;-80
2024/01/10 07:29:51;;;;;;;;;;;;;;;-6.72;69.50;101554.06;4935673;28;19934;-79
2024/01/10 07:32:19;;;;;;;;;;;;;;;-6.67;69.61;101550.16;4933929;28;20018;-79
2024/01/10 07:34:46;;;;;;;;;;;;;;;-6.64;69.06;101557.16;4934443;28;19927;-80
2024/01/10 07:39:50;;;;;;;;;;;;;;;-6.62;68.94;101557.28;5058220;23;19941;-77
2024/01/10 07:42:18;;;;;;;;;;;;;;;-6.61;68.77;101556.50;4945884;28;19961;-77
2024/01/10 07:44:44;;;;;;;;;;;;;;;-6.61;69.46;101553.97;4963713;28;20280;-78
2024/01/10 07:47:14;;;;;;;;;;;;;;;-6.58;69.46;101564.38;4962325;28;19926;-78
2024/01/10 07:49:40;;;;;;;;;;;;;;;-6.53;69.29;101573.25;4953817;28;19933;-79
2024/01/10 07:52:07;;;;;;;;;;;;;;;-6.54;69.39;101571.50;4967213;28;19927;-78
2024/01/10 07:54:34;;;;;;;;;;;;;;;-6.51;68.97;101571.72;4965475;28;20018;-78
2024/01/10 07:57:00;;;;;;;;;;;;;;;-6.51;69.10;101574.25;4955708;28;19926;-78
2024/01/10 07:59:27;;;;;;;;;;;;;;;-6.48;68.59;101570.25;4961876;28;19926;-78
2024/01/10 08:01:56;;;;;;;;;;;;;;;-6.42;68.83;101576.59;4967257;28;20029;-77
2024/01/10 08:04:23;;;;;;;;;;;;;;;-6.42;69.03;101577.47;4955181;28;19927;-79
2024/01/10 08:06:49;;;;;;;;;;;;;;;-6.39;68.40;101581.91;4949668;28;19930;-79
2024/01/10 08:09:16;;;;;;;;;;;;;;;-6.35;68.58;101574.56;4955220;28;19960;-79
2024/01/10 08:11:43;;;;;;;;;;;;;;;-6.36;67.92;101577.91;4955972;28;19950;-79
2024/01/10 08:14:09;;;;;;;;;;;;;;;-6.29;67.93;101579.22;4953751;28;19938;-80
2024/01/10 08:16:36;;;;;;;;;;;;;;;-6.20;68.34;101584.09;4958882;28;19929;-79
2024/01/10 08:19:02;;;;;;;;;;;;;;;-6.16;68.01;101586.09;4954398;28;19927;-79
2024/01/10 08:21:29;;;;;;;;;;;;;;;-6.14;68.23;101584.53;4952390;28;19930;-79
2024/01/10 08:23:56;;;;;;;;;;;;;;;-6.03;68.69;101583.63;4955591;28;20358;-79
2024/01/10 08:26:23;;;;;;;;;;;;;;;-5.94;68.50;101588.47;4968492;28;19937;-80
2024/01/10 08:28:49;;;;;;;;;;;;;;;-5.96;68.43;101584.91;4964551;28;19938;-77
2024/01/10 08:31:16;;;;;;;;;;;;;;;-5.91;68.45;101586.13;4958172;28;19926;-80
2024/01/10 08:33:43;;;;;;;;;;;;;;;-5.93;67.43;101591.13;4957446;28;20025;-79
2024/01/10 08:36:10;;;;;;;;;;;;;;;-5.80;67.90;101592.88;4951867;28;20013;-80
2024/01/10 08:38:37;;;;;;;;;;;;;;;-5.70;67.36;101589.28;4961645;28;19934;-80
2024/01/10 08:41:04;;;;;;;;;;;;;;;-5.79;66.66;101583.56;4962655;28;19926;-80
2024/01/10 08:43:31;;;;;;;;;;;;;;;-5.71;66.91;101586.63;4963714;28;20005;-80
2024/01/10 08:45:57;;;;;;;;;;;;;;;-5.60;67.28;101584.00;4959536;28;19927;-80
2024/01/10 08:48:24;;;;;;;;;;;;;;;-5.70;66.60;101589.28;4959164;28;19926;-80
2024/01/10 08:50:51;;;;;;;;;;;;;;;-5.67;66.62;101589.50;4968916;28;20005;-80
2024/01/10 08:53:18;;;;;;;;;;;;;;;-5.52;66.75;101584.53;4967549;28;19930;-80
2024/01/10 08:55:47;;;;;;;;;;;;;;;-5.51;66.39;101583.75;4963244;28;19985;-80
2024/01/10 08:58:14;;;;;;;;;;;;;;;-5.48;66.40;101590.75;4957954;28;19938;-80
2024/01/10 09:00:40;;;;;;;;;;;;;;;-5.39;66.19;101588.81;4962149;28;19950;-79
2024/01/10 09:03:07;;;;;;;;;;;;;;;-5.41;65.22;101587.84;4962512;28;19927;-80
2024/01/10 09:05:34;;;;;;;;;;;;;;;-5.29;65.72;101577.53;4966802;28;19930;-80
2024/01/10 09:08:00;;;;;;;;;;;;;;;-5.19;65.63;101582.47;4959292;28;19926;-80
2024/01/10 09:10:27;;;;;;;;;;;;;;;-5.13;65.18;101582.00;4960706;28;19933;-80
2024/01/10 09:12:55;;;;;;;;;;;;;;;-5.20;64.62;101588.38;4969104;28;19985;-80
2024/01/10 09:15:22;;;;;;;;;;;;;;;-5.06;64.93;101581.63;4962829;28;19938;-79
2024/01/10 09:17:48;;;;;;;;;;;;;;;-5.04;64.24;101591.97;4965535;28;20365;-79
2024/01/10 09:20:16;;;;;;;;;;;;;;;-4.93;64.60;101588.44;4962064;28;19989;-80
2024/01/10 09:22:43;;;;;;;;;;;;;;;-4.94;64.13;101592.69;4963796;28;19948;-80
2024/01/10 09:25:12;;;;;;;;;;;;;;;-4.86;63.94;101584.63;4957340;28;19926;-81
2024/01/10 09:27:40;;;;;;;;;;;;;;;-4.73;64.30;101594.88;4957206;28;19931;-81
2024/01/10 09:30:10;;;;;;;;;;;;;;;-4.63;64.01;101583.56;4964736;28;20322;-80
2024/01/10 09:32:37;;;;;;;;;;;;;;;-4.51;64.08;101593.72;4962204;28;19934;-80
2024/01/10 09:35:04;;;;;;;;;;;;;;;-4.52;63.42;101594.50;4958396;28;19969;-80
2024/01/10 09:37:30;;;;;;;;;;;;;;;-4.57;64.05;101595.09;4957918;28;19934;-79
2024/01/10 09:39:57;;;;;;;;;;;;;;;-4.52;64.14;101602.19;4957754;28;19949;-79
2024/01/10 09:42:25;;;;;;;;;;;;;;;-4.44;64.22;101596.75;4956824;28;19954;-80
2024/01/10 09:44:52;;;;;;;;;;;;;;;-4.46;63.56;101602.56;4962792;28;19958;-80
2024/01/10 09:47:19;;;;;;;;;;;;;;;-4.42;63.38;101599.41;4967704;28;19926;-79
2024/01/10 09:49:46;;;;;;;;;;;;;;;-4.30;64.06;101599.31;4962952;28;19926;-79
2024/01/10 09:52:40;;;;;;;;;;;;;;;-4.25;63.41;101598.81;4948055;28;19934;-79
2024/01/10 09:55:07;;;;;;;;;;;;;;;-4.25;63.07;101603.94;4963345;28;19926;-79
2024/01/10 09:57:36;;;;;;;;;;;;;;;-4.23;62.99;101602.38;4957514;28;19930;-80
2024/01/10 10:00:04;;;;;;;;;;;;;;;-4.18;62.88;101609.47;4958654;28;20007;-78
2024/01/10 10:02:31;;;;;;;;;;;;;;;-4.11;62.75;101606.47;4966470;28;19930;-80
2024/01/10 10:05:08;;;;;;;;;;;;;;;-4.11;62.77;101606.47;4966714;28;19978;-80
2024/01/10 10:07:47;;;;;;;;;;;;;;;-4.07;62.76;101603.31;4964367;28;19957;-79
2024/01/10 10:10:15;;;;;;;;;;;;;;;-4.01;62.37;101590.91;4961544;28;19933;-80
2024/01/10 10:12:47;;;;;;;;;;;;;;;-3.99;62.61;101591.00;4966053;28;20408;-79
2024/01/10 10:15:17;;;;;;;;;;;;;;;-3.93;62.41;101597.38;4963810;28;19939;-80
2024/01/10 10:17:47;;;;;;;;;;;;;;;-3.92;62.51;101599.16;4966790;28;20017;-80
2024/01/10 10:20:14;;;;;;;;;;;;;;;-3.86;62.45;101599.53;4961857;28;19993;-78
2024/01/10 10:22:50;;;;;;;;;;;;;;;-3.83;61.38;101603.09;4966157;28;19927;-79
2024/01/10 10:25:17;;;;;;;;;;;;;;;-3.89;60.57;101596.78;4957809;28;19927;-81
2024/01/10 10:27:43;;;;;;;;;;;;;;;-3.70;61.69;101597.94;4966407;28;19934;-81
2024/01/10 10:30:10;;;;;;;;;;;;;;;-3.71;61.82;101588.44;4974915;28;20484;-82
2024/01/10 10:32:37;;;;;;;;;;;;;;;-3.56;61.38;101594.53;4970794;28;19927;-80
2024/01/10 10:35:05;;;;;;;;;;;;;;;-3.63;61.39;101594.94;4965693;28;19993;-82
2024/01/10 10:37:37;;;;;;;;;;;;;;;-3.61;61.27;101595.91;4968108;28;19930;-81
2024/01/10 10:40:06;;;;;;;;;;;;;;;-3.58;60.53;101595.22;4969059;28;19974;-78
2024/01/10 10:42:36;;;;;;;;;;;;;;;-3.53;60.02;101589.56;4967926;28;19926;-78
2024/01/10 10:45:03;;;;;;;;;;;;;;;-3.46;60.15;101582.22;4964724;28;19927;-78
2024/01/10 10:47:32;;;;;;;;;;;;;;;-3.45;59.66;101576.31;4971012;28;19930;-78
2024/01/10 10:49:59;;;;;;;;;;;;;;;-3.36;60.11;101571.72;4975745;28;19980;-78
2024/01/10 10:52:26;;;;;;;;;;;;;;;-3.33;60.03;101577.06;4979879;28;19973;-78
2024/01/10 10:54:55;;;;;;;;;;;;;;;-3.36;58.69;101576.84;4966807;28;19931;-79
2024/01/10 10:57:21;;;;;;;;;;;;;;;-3.36;58.46;101574.28;4963458;28;19930;-78
2024/01/10 10:59:48;;;;;;;;;;;;;;;-3.19;58.74;101575.28;4964752;28;19926;-80
2024/01/10 11:02:19;;;;;;;;;;;;;;;-3.12;58.53;101568.84;4963815;28;19980;-76
2024/01/10 11:04:46;;;;;;;;;;;;;;;-2.96;58.30;101574.06;4965111;28;19926;-79
2024/01/10 11:07:13;;;;;;;;;;;;;;;-2.85;58.22;101557.59;4967588;28;19938;-80
2024/01/10 11:09:42;;;;;;;;;;;;;;;-2.80;56.80;101566.44;4965192;28;19926;-80
2024/01/10 11:12:14;;;;;;;;;;;;;;;-2.89;56.53;101576.19;4968521;28;19932;-80
2024/01/10 11:14:41;;;;;;;;;;;;;;;-2.68;56.56;101570.50;4957838;28;19937;-80
2024/01/10 11:17:08;;;;;;;;;;;;;;;-2.75;56.73;101573.53;4958389;28;19926;-79
2024/01/10 11:19:55;;;;;;;;;;;;;;;-2.66;57.96;101569.78;4960206;28;20014;-80
2024/01/10 11:22:28;;;;;;;;;;;;;;;-2.44;56.68;101571.00;4966383;28;19933;-79
2024/01/10 11:24:55;;;;;;;;;;;;;;;-2.56;54.49;101571.22;4956918;28;19933;-80
2024/01/10 11:27:25;;;;;;;;;;;;;;;-2.28;55.24;101567.59;4957385;28;19989;-80
2024/01/10 11:29:51;;;;;;;;;;;;;;;-2.52;54.81;101573.16;4962837;28;19937;-79
2024/01/10 11:32:18;;;;;;;;;;;;;;;-2.35;54.48;101568.06;4963234;28;19930;-79
2024/01/10 11:35:07;;;;;;;;;;;;;;;-2.18;55.87;101567.28;4968982;28;19926;-80
2024/01/10 11:37:43;;;;;;;;;;;;;;;-2.18;54.59;101569.88;4963439;28;20025;-81
2024/01/10 11:40:14;;;;;;;;;;;;;;;-2.28;54.43;101570.16;4966108;28;19929;-80
2024/01/10 11:42:47;;;;;;;;;;;;;;;-1.86;55.74;101563.00;4968795;28;20138;-80
2024/01/10 11:45:41;;;;;;;;;;;;;;;-1.99;54.19;101560.59;4963601;28;20396;-80
2024/01/10 11:48:08;;;;;;;;;;;;;;;-1.80;54.63;101558.16;4937559;28;19933;-81
2024/01/10 11:50:35;;;;;;;;;;;;;;;-1.78;53.86;101553.13;4941668;28;19934;-81
2024/01/10 11:53:03;;;;;;;;;;;;;;;-1.70;53.60;101559.56;4964305;28;19946;-80
2024/01/10 11:55:50;;;;;;;;;;;;;;;-1.72;54.68;101560.28;4939163;28;19934;-80
2024/01/10 11:58:17;;;;;;;;;;;;;;;-1.50;53.28;101550.31;4955337;28;19926;-79
2024/01/10 12:00:44;;;;;;;;;;;;;;;-1.55;52.57;101554.34;4961251;28;20038;-80
2024/01/10 12:03:12;;;;;;;;;;;;;;;-1.32;53.60;101552.06;4958401;28;19930;-80
2024/01/10 12:05:40;;;;;;;;;;;;;;;-1.38;53.23;101562.03;4955725;28;19933;-79
2024/01/10 12:08:10;;;;;;;;;;;;;;;-1.64;51.99;101556.41;4951554;28;19948;-78
2024/01/10 12:10:37;;;;;;;;;;;;;;;-1.07;52.64;101547.34;4953030;28;19934;-79
2024/01/10 12:13:04;;;;;;;;;;;;;;;-1.07;53.12;101555.06;4957656;28;19933;-80
2024/01/10 12:15:31;;;;;;;;;;;;;;;-0.70;52.00;101548.25;4952412;28;19927;-81
2024/01/10 12:17:59;;;;;;;;;;;;;;;-0.66;51.26;101539.00;4959547;28;19926;-80
2024/01/10 12:20:28;;;;;;;;;;;;;;;-0.88;52.06;101531.09;4958820;28;19950;-80
2024/01/10 12:22:56;;;;;;;;;;;;;;;-0.65;51.85;101533.00;4955216;28;19942;-80
2024/01/10 12:25:23;;;;;;;;;;;;;;;-0.79;52.34;101535.81;4961828;28;20008;-79
2024/01/10 12:27:49;;;;;;;;;;;;;;;-0.89;50.43;101536.16;4954476;28;19930;-80
2024/01/10 12:30:16;;;;;;;;;;;;;;;-0.44;50.90;101536.59;4943434;28;19926;-80
2024/01/10 12:32:43;;;;;;;;;;;;;;;-0.33;51.22;101537.13;4957306;28;19926;-79
2024/01/10 12:35:11;;;;;;;;;;;;;;;-0.06;51.28;101531.47;4956843;28;19931;-80
2024/01/10 12:37:38;;;;;;;;;;;;;;;-0.18;50.55;101536.94;4951658;28;20025;-79
2024/01/10 12:40:07;;;;;;;;;;;;;;;-0.34;49.96;101527.59;4951137;28;19981;-80